createdAt,value
2022-11-20T12:21:23.014Z,97874.50
2022-11-20T12:24:07.707Z,97872.72
2022-11-20T12:26:50.542Z,97868.25
2022-11-20T12:29:19.184Z,97869.06
2022-11-20T12:32:01.180Z,97866.44
2022-11-20T12:34:58.772Z,97873.72
2022-11-20T12:37:48.198Z,97868.88
2022-11-20T12:40:45.293Z,97868.88
2022-11-20T12:43:43.683Z,97861.59
2022-11-20T12:46:31.145Z,97863.25
2022-11-20T12:49:26.597Z,97860.19
2022-11-20T12:52:13.629Z,97857.78
2022-11-20T12:54:49.221Z,97848.28
2022-11-20T12:57:20.343Z,97847.91
2022-11-20T13:00:14.895Z,97848.91
2022-11-20T13:02:56.331Z,97837.41
2022-11-20T13:05:27.498Z,97835.59
2022-11-20T13:07:54.863Z,97838.22
2022-11-20T13:10:39.884Z,97835.00
2022-11-20T13:13:21.322Z,97833.38
2022-11-20T13:15:57.286Z,97833.97
2022-11-20T13:18:24.261Z,97837.41
2022-11-20T13:20:52.122Z,97834.78
2022-11-20T13:23:28.468Z,97826.28
2022-11-20T13:26:10.238Z,97823.06
2022-11-20T13:28:37.201Z,97820.84
2022-11-20T13:31:03.855Z,97813.97
2022-11-20T13:33:33.495Z,97810.75
2022-11-20T13:36:02.818Z,97813.97
2022-11-20T13:38:41.478Z,97805.28
2022-11-20T13:41:24.518Z,97811.97
2022-11-20T13:43:53.033Z,97804.50
2022-11-20T13:46:25.370Z,97810.34
2022-11-20T13:48:54.509Z,97809.34
2022-11-20T13:51:45.580Z,97809.13
2022-11-20T13:54:28.508Z,97807.50
2022-11-20T13:57:28.670Z,97812.59
2022-11-20T14:00:11.368Z,97804.72
2022-11-20T14:02:38.229Z,97796.41
2022-11-20T14:05:06.276Z,97800.47
2022-11-20T14:07:38.827Z,97804.09
2022-11-20T14:10:06.315Z,97806.72
2022-11-20T14:12:34.830Z,97803.47
2022-11-20T14:15:01.748Z,97803.47
2022-11-20T14:17:34.422Z,97807.31
2022-11-20T14:20:05.176Z,97806.31
2022-11-20T14:22:31.975Z,97801.06
2022-11-20T14:25:04.600Z,97791.97
2022-11-20T14:27:35.809Z,97794.81
2022-11-20T14:30:03.191Z,97800.06
2022-11-20T14:32:32.168Z,97798.03
2022-11-20T14:35:08.861Z,97800.25
2022-11-20T14:37:39.691Z,97806.50
2022-11-20T14:40:22.805Z,97808.13
2022-11-20T14:42:49.733Z,97801.88
2022-11-20T14:45:17.228Z,97798.84
2022-11-20T14:47:44.666Z,97804.09
2022-11-20T14:50:21.613Z,97798.22
2022-11-20T14:52:58.598Z,97795.81
2022-11-20T14:55:29.110Z,97799.44
2022-11-20T14:57:58.382Z,97803.88
2022-11-20T15:00:25.854Z,97800.66
2022-11-20T15:02:53.634Z,97799.25
2022-11-20T15:05:23.826Z,97802.69
2022-11-20T15:07:53.802Z,97802.06
2022-11-20T15:10:24.665Z,97795.81
2022-11-20T15:12:55.307Z,97798.44
2022-11-20T15:15:28.988Z,97794.38
2022-11-20T15:17:56.102Z,97795.59
2022-11-20T15:20:30.974Z,97800.63
2022-11-20T15:22:57.985Z,97798.00
2022-11-20T15:25:25.629Z,97806.28
2022-11-20T15:27:56.933Z,97796.59
2022-11-20T15:30:24.449Z,97795.38
2022-11-20T15:32:51.171Z,97799.25
2022-11-20T15:35:17.887Z,97796.00
2022-11-20T15:37:45.005Z,97799.25
2022-11-20T15:40:12.368Z,97798.63
2022-11-20T15:42:39.034Z,97800.25
2022-11-20T15:45:07.087Z,97805.28
2022-11-20T15:47:36.297Z,97800.84
2022-11-20T15:50:03.042Z,97807.09
2022-11-20T15:52:40.194Z,97801.66
2022-11-20T15:55:11.539Z,97808.31
2022-11-20T15:57:38.242Z,97811.75
2022-11-20T16:00:05.471Z,97815.16
2022-11-20T16:02:32.162Z,97805.09
2022-11-20T16:04:58.812Z,97808.50
2022-11-20T16:07:25.533Z,97807.28
2022-11-20T16:09:52.296Z,97813.94
2022-11-20T16:12:38.844Z,97812.75
2022-11-20T16:15:21.306Z,97811.97
2022-11-20T16:17:47.937Z,97817.78
2022-11-20T16:20:14.582Z,97814.38
2022-11-20T16:22:44.468Z,97810.75
2022-11-20T16:25:11.105Z,97808.13
2022-11-20T16:27:37.795Z,97804.47
2022-11-20T16:30:04.787Z,97803.06
2022-11-20T16:32:32.300Z,97796.41
2022-11-20T16:34:58.977Z,97795.22
2022-11-20T16:37:25.609Z,97795.38
2022-11-20T16:39:52.247Z,97801.03
2022-11-20T16:42:18.944Z,97799.84
2022-11-20T16:44:47.255Z,97792.59
2022-11-20T16:47:13.968Z,97802.03
2022-11-20T16:49:40.627Z,97791.75
2022-11-20T16:52:07.872Z,97801.25
2022-11-20T16:54:34.698Z,97798.00
2022-11-20T16:57:01.369Z,97796.41
2022-11-20T16:59:27.963Z,97789.97
2022-11-20T17:01:54.776Z,97798.22
2022-11-20T17:04:21.739Z,97796.22
2022-11-20T17:06:48.590Z,97808.13
2022-11-20T17:09:15.413Z,97803.66
2022-11-20T17:11:42.510Z,97806.28
2022-11-20T17:14:11.264Z,97803.03
2022-11-20T17:16:38.678Z,97810.53
2022-11-20T17:19:05.693Z,97815.16
2022-11-20T17:21:35.930Z,97808.13
2022-11-20T17:24:04.674Z,97804.47
2022-11-20T17:26:31.988Z,97804.28
2022-11-20T17:29:05.887Z,97799.84
2022-11-20T17:31:34.426Z,97801.66
2022-11-20T17:34:01.761Z,97800.25
2022-11-20T17:36:29.926Z,97801.03
2022-11-20T17:38:56.579Z,97801.25
2022-11-20T17:41:25.477Z,97802.88
2022-11-20T17:43:55.083Z,97799.22
2022-11-20T17:46:24.521Z,97801.25
2022-11-20T17:48:51.482Z,97796.00
2022-11-20T17:51:22.666Z,97798.63
2022-11-20T17:53:51.887Z,97798.00
2022-11-20T17:56:33.869Z,97794.16
2022-11-20T17:59:03.984Z,97797.63
2022-11-20T18:01:30.646Z,97797.63
2022-11-20T18:03:57.491Z,97799.41
2022-11-20T18:06:26.332Z,97796.41
2022-11-20T18:08:53.180Z,97797.00
2022-11-20T18:11:23.024Z,97800.03
2022-11-20T18:14:08.292Z,97802.66
2022-11-20T18:16:38.694Z,97797.00
2022-11-20T18:19:05.434Z,97795.59
2022-11-20T18:21:32.307Z,97795.16
2022-11-20T18:23:58.974Z,97793.56
2022-11-20T18:26:26.509Z,97791.97
2022-11-20T18:28:55.483Z,97787.91
2022-11-20T18:31:22.333Z,97793.78
2022-11-20T18:33:49.604Z,97788.53
2022-11-20T18:36:22.013Z,97783.09
2022-11-20T18:38:52.159Z,97776.44
2022-11-20T18:41:36.212Z,97775.22
2022-11-20T18:44:20.798Z,97770.78
2022-11-20T18:46:47.847Z,97769.16
2022-11-20T18:49:15.152Z,97769.16
2022-11-20T18:51:44.185Z,97767.56
2022-11-20T18:54:13.444Z,97769.16
2022-11-20T18:56:40.511Z,97770.38
2022-11-20T18:59:10.314Z,97770.38
2022-11-20T19:01:41.195Z,97765.94
2022-11-20T19:04:10.190Z,97759.69
2022-11-20T19:06:38.459Z,97765.53
2022-11-20T19:09:06.331Z,97768.78
2022-11-20T19:11:33.063Z,97772.97
2022-11-20T19:13:59.773Z,97769.97
2022-11-20T19:16:26.419Z,97769.97
2022-11-20T19:18:54.179Z,97769.16
2022-11-20T19:21:25.049Z,97768.78
2022-11-20T19:23:54.323Z,97759.28
2022-11-20T19:26:21.989Z,97764.13
2022-11-20T19:28:49.429Z,97763.53
2022-11-20T19:31:24.293Z,97767.94
2022-11-20T19:33:57.959Z,97762.69
2022-11-20T19:36:27.481Z,97763.91
2022-11-20T19:38:54.982Z,97765.75
2022-11-20T19:41:32.563Z,97765.94
2022-11-20T19:44:01.662Z,97762.31
2022-11-20T19:46:30.131Z,97761.91
2022-11-20T19:48:57.278Z,97760.06
2022-11-20T19:51:28.028Z,97751.41
2022-11-20T19:53:56.680Z,97747.97
2022-11-20T19:56:24.624Z,97739.50
2022-11-20T19:58:53.213Z,97742.91
2022-11-20T20:01:24.958Z,97740.47
2022-11-20T20:03:51.995Z,97735.63
2022-11-20T20:06:22.707Z,97730.78
2022-11-20T20:09:06.334Z,97733.34
2022-11-20T20:11:34.319Z,97724.72
2022-11-20T20:14:04.434Z,97726.50
2022-11-20T20:16:31.113Z,97723.06
2022-11-20T20:19:01.356Z,97720.66
2022-11-20T20:21:30.596Z,97717.19
2022-11-20T20:23:58.936Z,97712.16
2022-11-20T20:26:27.912Z,97706.47
2022-11-20T20:28:54.961Z,97708.88
2022-11-20T20:31:24.894Z,97711.31
2022-11-20T20:33:51.631Z,97707.38
2022-11-20T20:36:20.135Z,97708.22
2022-11-20T20:38:46.826Z,97709.22
2022-11-20T20:41:14.330Z,97717.78
2022-11-20T20:43:56.761Z,97711.97
2022-11-20T20:46:24.246Z,97722.38
2022-11-20T20:48:54.431Z,97725.19
2022-11-20T20:51:22.446Z,97719.78
2022-11-20T20:53:50.360Z,97726.81
2022-11-20T20:56:18.002Z,97724.75
2022-11-20T20:58:45.070Z,97715.28
2022-11-20T21:01:14.075Z,97712.00
2022-11-20T21:03:41.275Z,97723.03
2022-11-20T21:06:09.987Z,97713.19
2022-11-20T21:08:40.360Z,97711.16
2022-11-20T21:11:09.078Z,97707.16
2022-11-20T21:13:37.360Z,97705.69
2022-11-20T21:16:05.281Z,97707.06
2022-11-20T21:18:32.718Z,97704.41
2022-11-20T21:21:14.708Z,97706.88
2022-11-20T21:23:42.546Z,97708.84
2022-11-20T21:26:09.811Z,97703.63
2022-11-20T21:28:37.797Z,97702.78
2022-11-20T21:31:09.541Z,97704.38
2022-11-20T21:33:38.141Z,97706.59
2022-11-20T21:36:05.653Z,97707.94
2022-11-20T21:38:32.293Z,97710.53
2022-11-20T21:40:59.203Z,97700.47
2022-11-20T21:43:26.136Z,97700.69
2022-11-20T21:45:53.125Z,97704.97
2022-11-20T21:48:21.231Z,97706.00
2022-11-20T21:50:48.309Z,97705.97
2022-11-20T21:53:14.894Z,97707.59
2022-11-20T21:55:41.540Z,97700.47
2022-11-20T21:58:08.174Z,97697.81
2022-11-20T22:00:34.874Z,97699.44
2022-11-20T22:03:01.681Z,97698.50
2022-11-20T22:05:28.313Z,97698.06
2022-11-20T22:07:54.951Z,97694.03
2022-11-20T22:10:21.612Z,97693.03
2022-11-20T22:12:48.269Z,97692.03
2022-11-20T22:15:27.979Z,97684.19
2022-11-20T22:18:16.896Z,97681.09
2022-11-20T22:20:43.711Z,97684.69
2022-11-20T22:23:10.346Z,97687.06
2022-11-20T22:25:37.023Z,97693.31
2022-11-20T22:28:03.710Z,97689.09
2022-11-20T22:30:30.342Z,97682.16
2022-11-20T22:32:57.073Z,97686.16
2022-11-20T22:35:23.777Z,97688.06
2022-11-20T22:37:50.540Z,97686.94
2022-11-20T22:40:17.269Z,97688.44
2022-11-20T22:42:46.153Z,97690.13
2022-11-20T22:45:14.106Z,97677.94
2022-11-20T22:47:40.731Z,97669.69
2022-11-20T22:50:07.661Z,97673.53
2022-11-20T22:52:34.308Z,97672.31
2022-11-20T22:55:00.890Z,97669.09
2022-11-20T22:57:27.539Z,97660.34
2022-11-20T22:59:54.177Z,97655.16
2022-11-20T23:02:20.787Z,97660.69
2022-11-20T23:04:47.448Z,97658.31
2022-11-20T23:07:14.092Z,97658.50
2022-11-20T23:09:40.726Z,97664.13
2022-11-20T23:12:07.701Z,97669.66
2022-11-20T23:14:34.340Z,97664.13
2022-11-20T23:17:00.982Z,97662.06
2022-11-20T23:19:27.594Z,97657.75
2022-11-20T23:21:54.191Z,97652.72
2022-11-20T23:24:20.883Z,97655.25
2022-11-20T23:26:48.000Z,97653.97
2022-11-20T23:29:14.665Z,97664.41
2022-11-20T23:31:41.400Z,97661.13
2022-11-20T23:34:08.050Z,97650.06
2022-11-20T23:36:34.682Z,97644.59
2022-11-20T23:39:01.567Z,97643.72
2022-11-20T23:41:28.324Z,97655.97
2022-11-20T23:43:54.945Z,97647.81
2022-11-20T23:46:22.063Z,97648.88
2022-11-20T23:48:48.996Z,97653.72
2022-11-20T23:51:15.645Z,97651.16
2022-11-20T23:53:42.332Z,97643.13
2022-11-20T23:56:11.591Z,97646.97
2022-11-20T23:58:39.301Z,97641.38
